sensor_id;sensor_type;location;lat;lon;timestamp;pressure;altitude;pressure_sealevel;temperature;humidity
43125;BME280;49182;50.788;7.318;2022-08-18T00:01:02;100468.09;;;17.82;77.68
43125;BME280;49182;50.788;7.318;2022-08-18T00:03:30;100490.47;;;17.96;78.61
43125;BME280;49182;50.788;7.318;2022-08-18T00:06:17;100493.88;;;17.90;78.49
43125;BME280;49182;50.788;7.318;2022-08-18T00:08:44;100492.31;;;17.81;78.38
43125;BME280;49182;50.788;7.318;2022-08-18T00:11:11;100498.38;;;17.74;78.56
43125;BME280;49182;50.788;7.318;2022-08-18T00:13:37;100501.63;;;17.70;78.66
43125;BME280;49182;50.788;7.318;2022-08-18T00:16:04;100501.97;;;17.67;78.38
43125;BME280;49182;50.788;7.318;2022-08-18T00:18:32;100503.19;;;17.64;78.68
43125;BME280;49182;50.788;7.318;2022-08-18T00:20:59;100499.84;;;17.62;78.75
43125;BME280;49182;50.788;7.318;2022-08-18T00:23:26;100495.66;;;17.60;78.75
43125;BME280;49182;50.788;7.318;2022-08-18T00:25:54;100492.38;;;17.58;78.63
43125;BME280;49182;50.788;7.318;2022-08-18T00:28:20;100474.94;;;17.47;78.54
43125;BME280;49182;50.788;7.318;2022-08-18T00:30:49;100482.59;;;17.50;79.04
43125;BME280;49182;50.788;7.318;2022-08-18T00:33:20;100472.09;;;17.49;79.38
43125;BME280;49182;50.788;7.318;2022-08-18T00:35:48;100483.16;;;17.46;79.20
43125;BME280;49182;50.788;7.318;2022-08-18T00:38:15;100479.38;;;17.40;79.23
43125;BME280;49182;50.788;7.318;2022-08-18T00:40:52;100476.09;;;17.30;79.13
43125;BME280;49182;50.788;7.318;2022-08-18T00:43:22;100480.16;;;17.26;79.00
43125;BME280;49182;50.788;7.318;2022-08-18T00:45:52;100475.72;;;17.18;79.23
43125;BME280;49182;50.788;7.318;2022-08-18T00:48:18;100493.00;;;17.22;80.04
43125;BME280;49182;50.788;7.318;2022-08-18T00:50:53;100496.41;;;17.16;80.16
43125;BME280;49182;50.788;7.318;2022-08-18T00:53:22;100496.13;;;17.11;80.25
43125;BME280;49182;50.788;7.318;2022-08-18T00:55:49;100501.81;;;17.08;79.85
43125;BME280;49182;50.788;7.318;2022-08-18T00:58:23;100503.00;;;17.06;79.81
43125;BME280;49182;50.788;7.318;2022-08-18T01:00:51;100499.66;;;17.04;79.91
43125;BME280;49182;50.788;7.318;2022-08-18T01:03:19;100509.34;;;17.05;80.70
43125;BME280;49182;50.788;7.318;2022-08-18T01:05:55;100484.63;;;16.88;81.06
43125;BME280;49182;50.788;7.318;2022-08-18T01:08:24;100512.53;;;17.00;81.57
43125;BME280;49182;50.788;7.318;2022-08-18T01:10:55;100507.94;;;16.94;81.27
43125;BME280;49182;50.788;7.318;2022-08-18T01:13:25;100510.19;;;16.82;81.27
43125;BME280;49182;50.788;7.318;2022-08-18T01:15:52;100524.19;;;16.84;80.91
43125;BME280;49182;50.788;7.318;2022-08-18T01:18:20;100522.50;;;16.83;81.13
43125;BME280;49182;50.788;7.318;2022-08-18T01:20:55;100518.34;;;16.81;81.47
43125;BME280;49182;50.788;7.318;2022-08-18T01:23:27;100523.38;;;16.76;81.20
43125;BME280;49182;50.788;7.318;2022-08-18T01:25:54;100527.59;;;16.70;81.24
43125;BME280;49182;50.788;7.318;2022-08-18T01:28:21;100507.50;;;16.60;81.03
43125;BME280;49182;50.788;7.318;2022-08-18T01:30:51;100514.97;;;16.64;81.15
43125;BME280;49182;50.788;7.318;2022-08-18T01:33:18;100513.47;;;16.62;81.37
43125;BME280;49182;50.788;7.318;2022-08-18T01:35:47;100514.47;;;16.61;81.53
43125;BME280;49182;50.788;7.318;2022-08-18T01:38:15;100501.03;;;16.46;81.41
43125;BME280;49182;50.788;7.318;2022-08-18T01:40:44;100507.81;;;16.56;81.82
43125;BME280;49182;50.788;7.318;2022-08-18T01:43:31;100510.63;;;16.55;82.75
43125;BME280;49182;50.788;7.318;2022-08-18T01:45:58;100508.34;;;16.52;82.92
43125;BME280;49182;50.788;7.318;2022-08-18T01:48:24;100510.34;;;16.50;82.73
43125;BME280;49182;50.788;7.318;2022-08-18T01:50:51;100518.19;;;16.43;82.89
43125;BME280;49182;50.788;7.318;2022-08-18T01:53:18;100512.88;;;16.43;83.65
43125;BME280;49182;50.788;7.318;2022-08-18T01:55:46;100524.22;;;16.37;83.56
43125;BME280;49182;50.788;7.318;2022-08-18T01:58:12;100520.41;;;16.32;83.52
43125;BME280;49182;50.788;7.318;2022-08-18T02:00:39;100517.94;;;16.30;83.59
43125;BME280;49182;50.788;7.318;2022-08-18T02:03:09;100521.47;;;16.23;83.24
43125;BME280;49182;50.788;7.318;2022-08-18T02:05:39;100528.94;;;16.27;82.77
43125;BME280;49182;50.788;7.318;2022-08-18T02:08:08;100530.31;;;16.23;82.60
43125;BME280;49182;50.788;7.318;2022-08-18T02:10:35;100523.47;;;16.21;82.25
43125;BME280;49182;50.788;7.318;2022-08-18T02:13:03;100504.22;;;16.10;82.61
43125;BME280;49182;50.788;7.318;2022-08-18T02:15:30;100520.16;;;16.18;82.87
43125;BME280;49182;50.788;7.318;2022-08-18T02:17:57;100495.41;;;16.02;83.27
43125;BME280;49182;50.788;7.318;2022-08-18T02:20:24;100506.69;;;16.12;83.41
43125;BME280;49182;50.788;7.318;2022-08-18T02:22:51;100509.72;;;16.09;83.98
43125;BME280;49182;50.788;7.318;2022-08-18T02:25:18;100515.38;;;16.06;84.16
43125;BME280;49182;50.788;7.318;2022-08-18T02:27:46;100509.72;;;16.01;84.22
43125;BME280;49182;50.788;7.318;2022-08-18T02:30:17;100496.09;;;15.96;84.29
43125;BME280;49182;50.788;7.318;2022-08-18T02:32:44;100496.63;;;15.91;84.56
43125;BME280;49182;50.788;7.318;2022-08-18T02:35:11;100497.94;;;15.87;84.34
43125;BME280;49182;50.788;7.318;2022-08-18T02:37:38;100505.28;;;15.85;84.34
43125;BME280;49182;50.788;7.318;2022-08-18T02:40:09;100490.69;;;15.65;84.23
43125;BME280;49182;50.788;7.318;2022-08-18T02:42:41;100511.16;;;15.72;84.10
43125;BME280;49182;50.788;7.318;2022-08-18T02:45:08;100525.78;;;15.76;84.43
43125;BME280;49182;50.788;7.318;2022-08-18T02:47:36;100530.44;;;15.74;84.75
43125;BME280;49182;50.788;7.318;2022-08-18T02:50:04;100528.75;;;15.82;86.57
43125;BME280;49182;50.788;7.318;2022-08-18T02:52:31;100528.44;;;15.76;86.78
43125;BME280;49182;50.788;7.318;2022-08-18T02:54:58;100526.78;;;15.75;87.12
43125;BME280;49182;50.788;7.318;2022-08-18T02:57:24;100506.34;;;15.60;86.77
43125;BME280;49182;50.788;7.318;2022-08-18T02:59:51;100515.31;;;15.67;86.11
43125;BME280;49182;50.788;7.318;2022-08-18T03:02:18;100499.69;;;15.56;85.90
43125;BME280;49182;50.788;7.318;2022-08-18T03:04:46;100505.19;;;15.54;85.46
43125;BME280;49182;50.788;7.318;2022-08-18T03:07:13;100513.81;;;15.56;85.39
43125;BME280;49182;50.788;7.318;2022-08-18T03:09:40;100516.84;;;15.53;85.53
43125;BME280;49182;50.788;7.318;2022-08-18T03:12:08;100520.78;;;15.49;85.17
43125;BME280;49182;50.788;7.318;2022-08-18T03:14:35;100524.31;;;15.42;85.24
43125;BME280;49182;50.788;7.318;2022-08-18T03:17:04;100531.63;;;15.39;85.07
43125;BME280;49182;50.788;7.318;2022-08-18T03:19:32;100538.09;;;15.37;84.75
43125;BME280;49182;50.788;7.318;2022-08-18T03:22:01;100512.03;;;15.24;84.83
43125;BME280;49182;50.788;7.318;2022-08-18T03:24:30;100528.78;;;15.33;84.57
43125;BME280;49182;50.788;7.318;2022-08-18T03:26:58;100525.44;;;15.31;84.36
43125;BME280;49182;50.788;7.318;2022-08-18T03:29:25;100528.78;;;15.33;84.87
43125;BME280;49182;50.788;7.318;2022-08-18T03:31:59;100525.81;;;15.36;85.33
43125;BME280;49182;50.788;7.318;2022-08-18T03:34:25;100521.81;;;15.32;84.89
43125;BME280;49182;50.788;7.318;2022-08-18T03:36:52;100521.31;;;15.28;84.96
43125;BME280;49182;50.788;7.318;2022-08-18T03:39:20;100519.66;;;15.27;85.44
43125;BME280;49182;50.788;7.318;2022-08-18T03:41:49;100521.47;;;15.27;85.81
43125;BME280;49182;50.788;7.318;2022-08-18T03:44:28;100517.81;;;15.28;86.09
43125;BME280;49182;50.788;7.318;2022-08-18T03:46:55;100522.16;;;15.29;86.30
43125;BME280;49182;50.788;7.318;2022-08-18T03:49:22;100532.44;;;15.32;86.17
43125;BME280;49182;50.788;7.318;2022-08-18T03:51:48;100529.63;;;15.33;86.21
43125;BME280;49182;50.788;7.318;2022-08-18T03:54:17;100531.13;;;15.36;86.35
43125;BME280;49182;50.788;7.318;2022-08-18T03:56:46;100528.78;;;15.41;86.26
43125;BME280;49182;50.788;7.318;2022-08-18T03:59:15;100538.09;;;15.45;85.95
43125;BME280;49182;50.788;7.318;2022-08-18T04:01:43;100538.25;;;15.52;86.28
43125;BME280;49182;50.788;7.318;2022-08-18T04:04:14;100535.31;;;15.55;86.16
43125;BME280;49182;50.788;7.318;2022-08-18T04:06:43;100532.81;;;15.53;86.25
43125;BME280;49182;50.788;7.318;2022-08-18T04:09:12;100525.81;;;15.52;86.18
43125;BME280;49182;50.788;7.318;2022-08-18T04:11:41;100526.47;;;15.46;85.82
43125;BME280;49182;50.788;7.318;2022-08-18T04:14:12;100541.63;;;15.54;85.85
43125;BME280;49182;50.788;7.318;2022-08-18T04:16:39;100543.63;;;15.60;85.99
43125;BME280;49182;50.788;7.318;2022-08-18T04:19:07;100532.28;;;15.66;85.88
43125;BME280;49182;50.788;7.318;2022-08-18T04:21:35;100537.63;;;15.66;86.23
43125;BME280;49182;50.788;7.318;2022-08-18T04:24:03;100531.28;;;15.67;86.29
43125;BME280;49182;50.788;7.318;2022-08-18T04:26:30;100527.28;;;15.71;86.38
43125;BME280;49182;50.788;7.318;2022-08-18T04:28:57;100531.09;;;15.76;86.57
43125;BME280;49182;50.788;7.318;2022-08-18T04:31:26;100528.44;;;15.68;86.51
43125;BME280;49182;50.788;7.318;2022-08-18T04:33:55;100540.09;;;15.75;86.69
43125;BME280;49182;50.788;7.318;2022-08-18T04:36:21;100527.13;;;15.72;86.62
43125;BME280;49182;50.788;7.318;2022-08-18T04:38:48;100531.78;;;15.78;86.46
43125;BME280;49182;50.788;7.318;2022-08-18T04:41:15;100529.75;;;15.81;86.49
43125;BME280;49182;50.788;7.318;2022-08-18T04:43:42;100534.41;;;15.87;86.32
43125;BME280;49182;50.788;7.318;2022-08-18T04:46:09;100533.06;;;15.91;86.30
43125;BME280;49182;50.788;7.318;2022-08-18T04:48:38;100525.41;;;15.96;86.01
43125;BME280;49182;50.788;7.318;2022-08-18T04:51:07;100532.34;;;16.05;86.16
43125;BME280;49182;50.788;7.318;2022-08-18T04:53:35;100528.81;;;16.12;85.92
43125;BME280;49182;50.788;7.318;2022-08-18T04:56:02;100535.97;;;16.12;86.58
43125;BME280;49182;50.788;7.318;2022-08-18T04:58:29;100539.31;;;16.14;86.72
43125;BME280;49182;50.788;7.318;2022-08-18T05:00:57;100540.28;;;16.21;86.25
43125;BME280;49182;50.788;7.318;2022-08-18T05:03:25;100536.97;;;16.19;86.53
43125;BME280;49182;50.788;7.318;2022-08-18T05:05:55;100538.47;;;16.22;86.66
43125;BME280;49182;50.788;7.318;2022-08-18T05:08:22;100546.09;;;16.25;86.56
43125;BME280;49182;50.788;7.318;2022-08-18T05:10:52;100540.59;;;16.26;86.56
43125;BME280;49182;50.788;7.318;2022-08-18T05:13:18;100540.75;;;16.33;86.61
43125;BME280;49182;50.788;7.318;2022-08-18T05:15:51;100552.91;;;16.35;86.37
43125;BME280;49182;50.788;7.318;2022-08-18T05:18:36;100547.91;;;16.32;86.20
43125;BME280;49182;50.788;7.318;2022-08-18T05:21:05;100557.19;;;16.44;86.25
43125;BME280;49182;50.788;7.318;2022-08-18T05:23:35;100551.16;;;16.50;86.12
43125;BME280;49182;50.788;7.318;2022-08-18T05:26:04;100546.81;;;16.49;85.97
43125;BME280;49182;50.788;7.318;2022-08-18T05:28:31;100554.28;;;16.62;85.68
43125;BME280;49182;50.788;7.318;2022-08-18T05:30:57;100547.66;;;16.50;86.10
43125;BME280;49182;50.788;7.318;2022-08-18T05:33:26;100565.78;;;16.63;86.18
43125;BME280;49182;50.788;7.318;2022-08-18T05:35:59;100564.41;;;16.67;86.28
43125;BME280;49182;50.788;7.318;2022-08-18T05:38:37;100539.63;;;16.58;86.19
43125;BME280;49182;50.788;7.318;2022-08-18T05:41:08;100573.03;;;16.77;85.98
43125;BME280;49182;50.788;7.318;2022-08-18T05:43:42;100562.50;;;16.83;85.73
43125;BME280;49182;50.788;7.318;2022-08-18T05:46:19;100563.28;;;16.92;85.36
43125;BME280;49182;50.788;7.318;2022-08-18T05:48:47;100574.72;;;17.01;85.41
43125;BME280;49182;50.788;7.318;2022-08-18T05:51:20;100573.84;;;17.08;85.16
43125;BME280;49182;50.788;7.318;2022-08-18T05:53:51;100584.66;;;17.15;84.57
43125;BME280;49182;50.788;7.318;2022-08-18T05:56:20;100586.59;;;17.21;84.31
43125;BME280;49182;50.788;7.318;2022-08-18T05:58:52;100576.56;;;17.23;84.46
43125;BME280;49182;50.788;7.318;2022-08-18T06:01:23;100580.34;;;17.28;84.22
43125;BME280;49182;50.788;7.318;2022-08-18T06:03:54;100589.53;;;17.34;84.45
43125;BME280;49182;50.788;7.318;2022-08-18T06:06:25;100583.47;;;17.40;84.30
43125;BME280;49182;50.788;7.318;2022-08-18T06:09:06;100569.09;;;17.41;83.61
43125;BME280;49182;50.788;7.318;2022-08-18T06:11:35;100577.31;;;17.54;83.48
43125;BME280;49182;50.788;7.318;2022-08-18T06:14:02;100586.13;;;17.63;83.13
43125;BME280;49182;50.788;7.318;2022-08-18T06:16:49;100583.84;;;17.74;82.79
43125;BME280;49182;50.788;7.318;2022-08-18T06:19:36;100586.13;;;17.77;82.56
43125;BME280;49182;50.788;7.318;2022-08-18T06:22:12;100590.59;;;17.85;82.29
43125;BME280;49182;50.788;7.318;2022-08-18T06:24:51;100576.94;;;17.80;82.08
43125;BME280;49182;50.788;7.318;2022-08-18T06:27:27;100589.84;;;17.91;82.24
43125;BME280;49182;50.788;7.318;2022-08-18T06:30:01;100590.63;;;18.00;82.17
43125;BME280;49182;50.788;7.318;2022-08-18T06:32:42;100595.41;;;18.04;81.93
43125;BME280;49182;50.788;7.318;2022-08-18T06:35:17;100597.63;;;18.15;81.51
43125;BME280;49182;50.788;7.318;2022-08-18T06:37:54;100592.94;;;18.17;81.02
43125;BME280;49182;50.788;7.318;2022-08-18T06:40:25;100603.53;;;18.26;81.12
43125;BME280;49182;50.788;7.318;2022-08-18T06:42:52;100607.88;;;18.27;81.10
43125;BME280;49182;50.788;7.318;2022-08-18T06:45:23;100604.91;;;18.36;80.64
43125;BME280;49182;50.788;7.318;2022-08-18T06:48:06;100610.78;;;18.46;79.98
43125;BME280;49182;50.788;7.318;2022-08-18T06:50:48;100606.66;;;18.44;80.40
43125;BME280;49182;50.788;7.318;2022-08-18T06:53:17;100597.53;;;18.38;80.28
43125;BME280;49182;50.788;7.318;2022-08-18T06:55:55;100601.84;;;18.54;80.33
43125;BME280;49182;50.788;7.318;2022-08-18T06:58:25;100610.44;;;18.64;80.40
43125;BME280;49182;50.788;7.318;2022-08-18T07:00:58;100608.06;;;18.69;80.54
43125;BME280;49182;50.788;7.318;2022-08-18T07:03:41;100601.97;;;18.75;80.65
43125;BME280;49182;50.788;7.318;2022-08-18T07:06:10;100594.84;;;18.82;81.07
43125;BME280;49182;50.788;7.318;2022-08-18T07:08:51;100585.00;;;18.89;81.35
43125;BME280;49182;50.788;7.318;2022-08-18T07:11:21;100579.63;;;19.04;81.31
43125;BME280;49182;50.788;7.318;2022-08-18T07:13:49;100589.41;;;19.12;81.37
43125;BME280;49182;50.788;7.318;2022-08-18T07:16:34;100575.81;;;19.13;81.38
43125;BME280;49182;50.788;7.318;2022-08-18T07:19:27;100539.38;;;19.12;80.82
43125;BME280;49182;50.788;7.318;2022-08-18T07:22:02;100573.06;;;19.28;81.31
43125;BME280;49182;50.788;7.318;2022-08-18T07:24:33;100576.53;;;19.43;80.55
43125;BME280;49182;50.788;7.318;2022-08-18T07:27:04;100573.53;;;19.53;80.02
43125;BME280;49182;50.788;7.318;2022-08-18T07:29:33;100576.91;;;19.61;79.39
43125;BME280;49182;50.788;7.318;2022-08-18T07:32:04;100584.53;;;19.64;79.51
43125;BME280;49182;50.788;7.318;2022-08-18T07:34:48;100580.59;;;19.60;79.26
43125;BME280;49182;50.788;7.318;2022-08-18T07:37:22;100592.81;;;19.69;79.37
43125;BME280;49182;50.788;7.318;2022-08-18T07:39:58;100589.78;;;19.72;79.32
43125;BME280;49182;50.788;7.318;2022-08-18T07:42:34;100593.91;;;19.75;79.37
43125;BME280;49182;50.788;7.318;2022-08-18T07:45:23;100587.97;;;19.79;79.42
43125;BME280;49182;50.788;7.318;2022-08-18T07:47:54;100594.72;;;19.75;79.39
43125;BME280;49182;50.788;7.318;2022-08-18T07:50:24;100598.28;;;19.83;79.04
43125;BME280;49182;50.788;7.318;2022-08-18T07:53:17;100605.31;;;19.84;79.04
43125;BME280;49182;50.788;7.318;2022-08-18T07:55:53;100600.78;;;19.84;78.97
43125;BME280;49182;50.788;7.318;2022-08-18T07:58:26;100621.09;;;20.00;78.63
43125;BME280;49182;50.788;7.318;2022-08-18T08:01:02;100625.47;;;20.07;78.31
43125;BME280;49182;50.788;7.318;2022-08-18T08:03:37;100635.88;;;20.17;78.30
43125;BME280;49182;50.788;7.318;2022-08-18T08:06:15;100628.06;;;20.22;77.58
43125;BME280;49182;50.788;7.318;2022-08-18T08:08:50;100631.63;;;20.29;77.50
43125;BME280;49182;50.788;7.318;2022-08-18T08:11:26;100642.25;;;20.44;77.10
43125;BME280;49182;50.788;7.318;2022-08-18T08:14:18;100632.19;;;20.52;76.52
43125;BME280;49182;50.788;7.318;2022-08-18T08:17:03;100645.66;;;20.59;76.43
43125;BME280;49182;50.788;7.318;2022-08-18T08:19:47;100647.38;;;20.73;75.44
43125;BME280;49182;50.788;7.318;2022-08-18T08:22:30;100653.75;;;20.72;75.10
43125;BME280;49182;50.788;7.318;2022-08-18T08:25:05;100645.91;;;20.71;75.46
43125;BME280;49182;50.788;7.318;2022-08-18T08:28:03;100658.09;;;20.73;74.90
43125;BME280;49182;50.788;7.318;2022-08-18T08:30:36;100653.31;;;20.69;74.82
43125;BME280;49182;50.788;7.318;2022-08-18T08:33:11;100650.06;;;20.73;74.76
43125;BME280;49182;50.788;7.318;2022-08-18T08:35:46;100641.19;;;20.73;74.76
43125;BME280;49182;50.788;7.318;2022-08-18T08:38:18;100645.09;;;20.77;74.62
43125;BME280;49182;50.788;7.318;2022-08-18T08:41:09;100658.78;;;20.88;74.11
43125;BME280;49182;50.788;7.318;2022-08-18T08:43:41;100646.19;;;20.89;73.94
43125;BME280;49182;50.788;7.318;2022-08-18T08:46:14;100661.31;;;21.03;73.32
43125;BME280;49182;50.788;7.318;2022-08-18T08:48:45;100662.50;;;20.94;73.22
43125;BME280;49182;50.788;7.318;2022-08-18T08:51:30;100658.41;;;20.98;73.12
43125;BME280;49182;50.788;7.318;2022-08-18T08:54:04;100657.38;;;21.06;72.79
43125;BME280;49182;50.788;7.318;2022-08-18T08:56:34;100654.97;;;21.11;72.61
43125;BME280;49182;50.788;7.318;2022-08-18T08:59:05;100665.13;;;21.22;72.66
43125;BME280;49182;50.788;7.318;2022-08-18T09:01:38;100661.19;;;21.24;72.09
43125;BME280;49182;50.788;7.318;2022-08-18T09:04:20;100655.03;;;21.30;71.70
43125;BME280;49182;50.788;7.318;2022-08-18T09:06:56;100663.72;;;21.39;71.66
43125;BME280;49182;50.788;7.318;2022-08-18T09:09:50;100657.34;;;21.47;70.70
43125;BME280;49182;50.788;7.318;2022-08-18T09:12:33;100650.09;;;21.41;70.86
43125;BME280;49182;50.788;7.318;2022-08-18T09:15:18;100648.47;;;21.46;70.70
43125;BME280;49182;50.788;7.318;2022-08-18T09:18:07;100656.09;;;21.49;70.70
43125;BME280;49182;50.788;7.318;2022-08-18T09:20:50;100648.81;;;21.30;71.11
43125;BME280;49182;50.788;7.318;2022-08-18T09:23:21;100638.69;;;21.25;70.84
43125;BME280;49182;50.788;7.318;2022-08-18T09:25:51;100640.56;;;21.38;71.02
43125;BME280;49182;50.788;7.318;2022-08-18T09:28:21;100645.75;;;21.39;71.05
43125;BME280;49182;50.788;7.318;2022-08-18T09:31:13;100645.34;;;21.43;70.86
43125;BME280;49182;50.788;7.318;2022-08-18T09:34:10;100645.13;;;21.37;70.51
43125;BME280;49182;50.788;7.318;2022-08-18T09:36:53;100657.69;;;21.24;71.26
43125;BME280;49182;50.788;7.318;2022-08-18T09:39:28;100658.94;;;21.21;71.77
43125;BME280;49182;50.788;7.318;2022-08-18T09:42:00;100661.66;;;21.28;71.48
43125;BME280;49182;50.788;7.318;2022-08-18T09:47:56;100639.72;;;21.24;71.42
43125;BME280;49182;50.788;7.318;2022-08-18T09:50:38;100651.53;;;21.36;71.31
43125;BME280;49182;50.788;7.318;2022-08-18T09:53:33;100656.88;;;21.36;71.11
43125;BME280;49182;50.788;7.318;2022-08-18T09:56:04;100649.88;;;21.49;70.87
43125;BME280;49182;50.788;7.318;2022-08-18T09:58:55;100658.59;;;21.64;70.28
43125;BME280;49182;50.788;7.318;2022-08-18T10:01:35;100642.69;;;21.69;70.17
43125;BME280;49182;50.788;7.318;2022-08-18T10:04:30;100659.66;;;21.89;69.44
43125;BME280;49182;50.788;7.318;2022-08-18T10:07:18;100656.38;;;22.00;68.88
43125;BME280;49182;50.788;7.318;2022-08-18T10:09:53;100652.66;;;22.01;68.87
43125;BME280;49182;50.788;7.318;2022-08-18T10:12:38;100647.84;;;22.23;68.14
43125;BME280;49182;50.788;7.318;2022-08-18T10:15:30;100650.31;;;22.38;66.46
43125;BME280;49182;50.788;7.318;2022-08-18T10:18:15;100653.19;;;22.56;66.99
43125;BME280;49182;50.788;7.318;2022-08-18T10:20:56;100648.16;;;22.73;66.66
43125;BME280;49182;50.788;7.318;2022-08-18T10:23:46;100649.56;;;22.95;65.87
43125;BME280;49182;50.788;7.318;2022-08-18T10:29:54;100643.88;;;23.10;63.62
43125;BME280;49182;50.788;7.318;2022-08-18T10:38:40;100617.69;;;23.23;62.97
43125;BME280;49182;50.788;7.318;2022-08-18T10:41:30;100626.00;;;23.53;62.21
43125;BME280;49182;50.788;7.318;2022-08-18T10:44:01;100628.34;;;23.74;61.63
43125;BME280;49182;50.788;7.318;2022-08-18T10:46:50;100616.47;;;23.82;61.22
43125;BME280;49182;50.788;7.318;2022-08-18T10:49:21;100603.63;;;23.77;60.06
43125;BME280;49182;50.788;7.318;2022-08-18T10:51:59;100616.13;;;24.15;59.70
43125;BME280;49182;50.788;7.318;2022-08-18T10:54:41;100610.34;;;24.36;59.24
43125;BME280;49182;50.788;7.318;2022-08-18T10:57:27;100616.19;;;24.51;59.26
43125;BME280;49182;50.788;7.318;2022-08-18T11:00:00;100601.72;;;24.64;58.40
43125;BME280;49182;50.788;7.318;2022-08-18T11:02:47;100600.31;;;24.62;58.09
43125;BME280;49182;50.788;7.318;2022-08-18T11:05:40;100610.78;;;24.70;57.86
43125;BME280;49182;50.788;7.318;2022-08-18T11:08:13;100616.50;;;24.62;56.78
43125;BME280;49182;50.788;7.318;2022-08-18T11:10:44;100612.38;;;24.59;57.14
43125;BME280;49182;50.788;7.318;2022-08-18T11:13:50;100621.28;;;24.59;57.09
43125;BME280;49182;50.788;7.318;2022-08-18T11:16:31;100616.94;;;24.58;57.01
43125;BME280;49182;50.788;7.318;2022-08-18T11:19:05;100605.31;;;24.58;57.18
43125;BME280;49182;50.788;7.318;2022-08-18T11:21:39;100601.97;;;24.63;56.87
43125;BME280;49182;50.788;7.318;2022-08-18T11:24:12;100583.28;;;24.61;56.99
43125;BME280;49182;50.788;7.318;2022-08-18T11:26:44;100580.41;;;24.74;55.94
43125;BME280;49182;50.788;7.318;2022-08-18T11:29:28;100589.56;;;24.73;55.55
43125;BME280;49182;50.788;7.318;2022-08-18T11:32:02;100594.28;;;24.59;55.79
43125;BME280;49182;50.788;7.318;2022-08-18T11:34:35;100588.28;;;24.57;55.63
43125;BME280;49182;50.788;7.318;2022-08-18T11:37:05;100590.47;;;24.49;55.94
43125;BME280;49182;50.788;7.318;2022-08-18T11:39:55;100604.41;;;24.46;56.05
43125;BME280;49182;50.788;7.318;2022-08-18T11:42:28;100600.81;;;24.70;55.45
43125;BME280;49182;50.788;7.318;2022-08-18T11:45:04;100584.81;;;24.87;54.74
43125;BME280;49182;50.788;7.318;2022-08-18T11:47:36;100578.69;;;25.10;54.80
43125;BME280;49182;50.788;7.318;2022-08-18T11:50:08;100572.41;;;25.27;54.41
43125;BME280;49182;50.788;7.318;2022-08-18T11:52:47;100555.75;;;25.54;53.63
43125;BME280;49182;50.788;7.318;2022-08-18T11:55:27;100553.78;;;25.84;53.42
43125;BME280;49182;50.788;7.318;2022-08-18T11:57:55;100538.81;;;26.05;51.79
43125;BME280;49182;50.788;7.318;2022-08-18T12:00:40;100544.34;;;26.22;50.80
43125;BME280;49182;50.788;7.318;2022-08-18T12:03:16;100551.63;;;26.21;50.75
43125;BME280;49182;50.788;7.318;2022-08-18T12:05:48;100566.56;;;26.47;50.69
43125;BME280;49182;50.788;7.318;2022-08-18T12:08:29;100575.47;;;26.59;49.60
43125;BME280;49182;50.788;7.318;2022-08-18T12:11:21;100587.47;;;26.63;49.71
43125;BME280;49182;50.788;7.318;2022-08-18T12:13:59;100574.69;;;26.47;48.64
43125;BME280;49182;50.788;7.318;2022-08-18T12:16:48;100616.16;;;26.47;48.92
43125;BME280;49182;50.788;7.318;2022-08-18T12:19:16;100627.94;;;26.41;48.67
43125;BME280;49182;50.788;7.318;2022-08-18T12:21:51;100626.84;;;26.31;49.19
43125;BME280;49182;50.788;7.318;2022-08-18T12:24:21;100619.00;;;26.29;49.80
43125;BME280;49182;50.788;7.318;2022-08-18T12:26:55;100612.38;;;26.25;49.91
43125;BME280;49182;50.788;7.318;2022-08-18T12:29:26;100595.06;;;26.38;49.75
43125;BME280;49182;50.788;7.318;2022-08-18T12:32:14;100575.94;;;26.56;48.61
43125;BME280;49182;50.788;7.318;2022-08-18T12:35:02;100568.13;;;26.31;48.84
43125;BME280;49182;50.788;7.318;2022-08-18T12:37:34;100561.56;;;26.27;48.54
43125;BME280;49182;50.788;7.318;2022-08-18T12:40:21;100556.44;;;26.42;48.50
43125;BME280;49182;50.788;7.318;2022-08-18T12:42:48;100552.84;;;26.65;48.48
43125;BME280;49182;50.788;7.318;2022-08-18T12:45:15;100557.50;;;26.81;48.32
43125;BME280;49182;50.788;7.318;2022-08-18T12:47:43;100552.41;;;26.85;48.04
43125;BME280;49182;50.788;7.318;2022-08-18T12:50:09;100538.03;;;26.96;47.85
43125;BME280;49182;50.788;7.318;2022-08-18T12:52:37;100535.41;;;27.01;47.36
43125;BME280;49182;50.788;7.318;2022-08-18T12:55:09;100521.84;;;27.18;47.32
43125;BME280;49182;50.788;7.318;2022-08-18T12:57:48;100516.19;;;27.19;47.26
43125;BME280;49182;50.788;7.318;2022-08-18T13:00:19;100512.91;;;27.34;46.84
43125;BME280;49182;50.788;7.318;2022-08-18T13:02:54;100519.38;;;27.16;46.80
43125;BME280;49182;50.788;7.318;2022-08-18T13:05:22;100517.53;;;27.33;46.01
43125;BME280;49182;50.788;7.318;2022-08-18T13:07:53;100523.03;;;27.38;46.59
43125;BME280;49182;50.788;7.318;2022-08-18T13:10:23;100511.09;;;27.23;46.31
43125;BME280;49182;50.788;7.318;2022-08-18T13:13:10;100525.50;;;27.40;45.97
43125;BME280;49182;50.788;7.318;2022-08-18T13:15:36;100518.91;;;27.36;46.13
43125;BME280;49182;50.788;7.318;2022-08-18T13:18:05;100522.34;;;27.31;46.35
43125;BME280;49182;50.788;7.318;2022-08-18T13:20:40;100520.09;;;27.57;45.41
43125;BME280;49182;50.788;7.318;2022-08-18T13:23:10;100527.72;;;27.76;45.47
43125;BME280;49182;50.788;7.318;2022-08-18T13:25:37;100520.75;;;27.86;44.88
43125;BME280;49182;50.788;7.318;2022-08-18T13:28:05;100530.25;;;28.05;44.54
43125;BME280;49182;50.788;7.318;2022-08-18T13:30:32;100521.41;;;28.31;43.75
43125;BME280;49182;50.788;7.318;2022-08-18T13:33:02;100498.91;;;28.36;43.59
43125;BME280;49182;50.788;7.318;2022-08-18T13:35:51;100490.38;;;28.27;43.52